Time;durP1;ratioP1;P1;durP2;ratioP2;P2;SDS_P1;SDS_P2;PMS_P1;PMS_P2;Temp;Humidity;BMP_temperature;BMP_pressure;BME280_temperature;BME280_humidity;BME280_pressure;Samples;Min_cycle;Max_cycle;Signal;HPM_P1;HPM_P2
2021/01/04 00:00:20;;;;;;;37.83;23.87;;;;;;;3.67;74.33;100009.44;1736548;82;21177;-43
2021/01/04 00:03:08;;;;;;;37.25;21.02;;;;;;;3.57;74.53;100001.58;1736679;82;21829;-43
2021/01/04 00:06:08;;;;;;;30.60;19.75;;;;;;;3.49;74.78;100003.59;1736587;82;21608;-43
2021/01/04 00:08:59;;;;;;;;;;;;;;;3.50;74.83;100010.55;1727082;82;21130;-42
2021/01/04 00:11:48;;;;;;;;;;;;;;;3.55;74.94;100015.81;1739180;82;20169;-41
2021/01/04 00:14:56;;;;;;;35.70;21.10;;;;;;;3.42;75.26;100015.27;1690379;84;20296;-43
2021/01/04 00:17:42;;;;;;;34.35;19.98;;;;;;;3.32;75.60;100016.78;1690357;84;21115;-43
2021/01/04 00:20:34;;;;;;;30.82;20.50;;;;;;;3.37;75.53;100023.39;1725664;82;21365;-43
2021/01/04 00:23:13;;;;;;;32.85;21.27;;;;;;;3.44;75.37;100027.27;1736437;82;21026;-43
2021/01/04 00:25:50;;;;;;;34.47;21.40;;;;;;;3.48;75.44;100028.83;1722845;82;21604;-43
2021/01/04 00:28:22;;;;;;;38.92;22.65;;;;;;;3.47;75.42;100028.03;1736412;82;21022;-42
2021/01/04 00:31:00;;;;;;;32.93;19.62;;;;;;;3.46;75.53;100028.31;1738615;82;21445;-41
2021/01/04 00:33:38;;;;;;;32.60;19.40;;;;;;;3.48;75.53;100027.49;1748769;81;23484;-43
2021/01/04 00:36:25;;;;;;;36.48;20.88;;;;;;;3.58;75.28;100028.65;1748611;82;21139;-43
2021/01/04 00:39:24;;;;;;;36.03;21.60;;;;;;;3.60;75.25;100025.11;1748650;82;21040;-42
2021/01/04 00:42:31;;;;;;;43.92;23.00;;;;;;;3.62;75.26;100026.16;1748691;81;21143;-43
2021/01/04 00:45:26;;;;;;;31.17;19.27;;;;;;;3.62;75.33;100026.95;1748626;82;21127;-42
2021/01/04 00:48:19;;;;;;;28.98;19.42;;;;;;;3.64;75.11;100022.62;1748656;81;21602;-43
2021/01/04 00:51:17;;;;;;;32.73;19.25;;;;;;;3.67;75.07;100030.09;1743351;81;21040;-42
2021/01/04 00:53:48;;;;;;;33.78;20.60;;;;;;;3.71;75.04;100037.78;1748520;81;21154;-42
2021/01/04 00:56:44;;;;;;;34.13;21.07;;;;;;;3.72;75.04;100036.15;1748752;82;21107;-43
2021/01/04 00:59:34;;;;;;;31.35;18.27;;;;;;;3.72;74.89;100037.49;1748428;82;21110;-43
2021/01/04 01:02:28;;;;;;;30.12;19.20;;;;;;;3.77;74.87;100033.92;1748625;81;21381;-43
2021/01/04 01:05:13;;;;;;;35.35;21.37;;;;;;;3.85;74.82;100038.03;1748146;82;21163;-43
2021/01/04 01:08:07;;;;;;;34.38;20.10;;;;;;;3.89;74.74;100029.64;1748672;82;21610;-42
2021/01/04 01:10:45;;;;;;;33.53;20.40;;;;;;;3.88;74.60;100024.02;1748656;82;21103;-43
2021/01/04 01:13:33;;;;;;;31.12;18.00;;;;;;;3.86;74.76;100030.24;1748771;82;21636;-41
2021/01/04 01:16:25;;;;;;;30.02;18.87;;;;;;;3.86;74.70;100024.88;1737243;82;21428;-43
2021/01/04 01:19:19;;;;;;;30.52;18.52;;;;;;;3.95;74.54;100024.97;1718702;83;21146;-42
2021/01/04 01:21:47;;;;;;;28.87;18.70;;;;;;;4.00;74.51;100030.78;1719185;82;21012;-43
2021/01/04 01:24:15;;;;;;;32.63;19.95;;;;;;;4.02;74.50;100023.23;1718842;83;21056;-42
2021/01/04 01:26:58;;;;;;;35.30;19.23;;;;;;;4.07;74.41;100017.73;1718790;83;21150;-41
2021/01/04 01:29:52;;;;;;;27.27;17.40;;;;;;;4.05;74.49;100019.94;1718822;83;21451;-43
2021/01/04 01:32:43;;;;;;;26.50;16.73;;;;;;;4.11;74.29;100026.26;1734450;82;21126;-43
2021/01/04 01:35:45;;;;;;;28.27;17.62;;;;;;;4.18;74.17;100022.60;1713584;82;21162;-44
2021/01/04 01:38:46;;;;;;;26.55;17.07;;;;;;;4.20;74.10;100028.47;1748429;81;21133;-43
2021/01/04 01:41:47;;;;;;;30.55;18.30;;;;;;;4.26;74.19;100029.94;1808854;78;22324;-42
2021/01/04 01:44:46;;;;;;;30.02;17.20;;;;;;;4.23;74.16;100030.55;1783108;80;21579;-41
2021/01/04 01:47:48;;;;;;;24.92;16.42;;;;;;;4.28;73.90;100033.67;1855657;76;22784;-40
2021/01/04 01:50:49;;;;;;;28.90;17.30;;;;;;;4.23;73.84;100029.75;1826085;78;21009;-41
2021/01/04 01:53:47;;;;;;;29.72;18.12;;;;;;;4.18;74.04;100023.14;1826295;78;22276;-41
2021/01/04 01:56:23;;;;;;;30.10;18.57;;;;;;;4.13;74.28;100017.34;1826068;78;21022;-41
2021/01/04 01:59:16;;;;;;;27.93;15.63;;;;;;;4.09;74.17;100016.36;1826056;78;21125;-39
2021/01/04 02:02:26;;;;;;;23.57;15.75;;;;;;;4.09;74.35;100015.56;1826106;78;21588;-41
2021/01/04 02:05:34;;;;;;;25.23;16.60;;;;;;;4.25;74.20;100015.50;1828617;78;22882;-41
2021/01/04 02:08:25;;;;;;;27.25;16.02;;;;;;;4.18;74.13;100009.73;1737804;82;21704;-42
2021/01/04 02:10:57;;;;;;;25.50;16.55;;;;;;;4.09;74.29;100015.56;1768156;81;21390;-41
2021/01/04 02:13:35;;;;;;;23.75;15.30;;;;;;;4.06;74.52;100022.33;1737680;82;21008;-42
2021/01/04 02:16:11;;;;;;;21.52;13.65;;;;;;;4.10;74.55;100027.89;1737677;82;21020;-42
2021/01/04 02:18:59;;;;;;;23.60;14.87;;;;;;;4.20;74.25;100019.63;1737701;82;21630;-41
2021/01/04 02:22:08;;;;;;;24.40;15.20;;;;;;;4.21;74.08;100026.59;1732309;82;21621;-41
2021/01/04 02:24:37;;;;;;;27.58;15.25;;;;;;;4.19;74.38;100018.03;1737779;82;21397;-41
2021/01/04 02:27:23;;;;;;;23.40;15.13;;;;;;;4.19;74.42;100011.33;1737596;82;21060;-41
2021/01/04 02:29:51;;;;;;;24.12;14.30;;;;;;;4.20;74.33;100011.58;1737202;82;21032;-40
2021/01/04 02:32:20;;;;;;;24.57;14.45;;;;;;;4.19;74.32;100016.14;1746855;81;21022;-42
2021/01/04 02:34:51;;;;;;;25.57;15.58;;;;;;;4.28;74.30;100008.17;1749289;82;21193;-42
2021/01/04 02:37:20;;;;;;;24.63;15.23;;;;;;;4.38;74.07;100011.44;1749344;82;21419;-42
2021/01/04 02:40:01;;;;;;;25.10;15.35;;;;;;;4.39;73.83;100016.26;1749212;82;21192;-42
2021/01/04 02:42:39;;;;;;;25.55;15.20;;;;;;;4.37;73.86;100019.23;1744110;82;21164;-41
2021/01/04 02:45:24;;;;;;;24.90;15.72;;;;;;;4.32;73.91;100013.18;1749325;82;21584;-40
2021/01/04 02:47:58;;;;;;;22.10;13.88;;;;;;;4.27;74.04;100011.95;1749166;82;21106;-42
2021/01/04 02:50:46;;;;;;;21.57;14.30;;;;;;;4.25;74.10;100014.16;1749467;82;22238;-41
2021/01/04 02:53:40;;;;;;;23.50;15.30;;;;;;;4.27;74.09;100019.45;1744498;81;21191;-42
2021/01/04 02:56:37;;;;;;;20.90;13.90;;;;;;;4.27;74.17;100014.63;1744516;82;21142;-41
2021/01/04 02:59:27;;;;;;;23.05;13.40;;;;;;;4.19;74.39;100012.12;1744443;82;21118;-42
2021/01/04 03:02:19;;;;;;;19.35;12.82;;;;;;;4.16;74.46;100017.30;1710663;82;21165;-41
2021/01/04 03:04:47;;;;;;;20.05;13.18;;;;;;;4.13;74.49;100022.70;1740383;82;21445;-42
2021/01/04 03:07:26;;;;;;;19.45;13.00;;;;;;;4.16;74.60;100035.55;1739069;82;21166;-41
2021/01/04 03:09:55;;;;;;;22.13;14.50;;;;;;;4.19;74.62;100022.86;1739177;82;21202;-40
2021/01/04 03:12:32;;;;;;;22.58;13.95;;;;;;;4.21;74.66;100025.25;1739272;82;21000;-40
2021/01/04 03:15:25;;;;;;;21.23;14.20;;;;;;;4.24;74.62;100025.98;1738875;82;21202;-41
2021/01/04 03:18:24;;;;;;;21.62;13.32;;;;;;;4.22;74.60;100020.11;1738656;82;21936;-40
2021/01/04 03:20:52;;;;;;;16.52;10.30;;;;;;;4.25;74.66;100022.20;1738954;82;21594;-41
2021/01/04 03:23:21;;;;;;;18.87;12.82;;;;;;;4.27;74.54;100020.00;1738576;82;21142;-42
2021/01/04 03:25:59;;;;;;;22.85;13.62;;;;;;;4.26;74.63;100021.12;1738634;82;21024;-41
2021/01/04 03:28:30;;;;;;;21.60;13.65;;;;;;;4.25;74.57;100016.84;1732233;82;21617;-40
2021/01/04 03:30:59;;;;;;;19.67;12.93;;;;;;;4.23;74.72;100004.25;1738638;81;21208;-41
2021/01/04 03:33:27;;;;;;;18.80;12.40;;;;;;;4.24;74.68;99999.14;1738910;82;21196;-42
2021/01/04 03:35:55;;;;;;;19.95;13.03;;;;;;;4.29;74.52;100003.05;1738691;82;21157;-39
2021/01/04 03:38:24;;;;;;;20.17;13.25;;;;;;;4.32;74.43;99998.41;1738647;82;21174;-41
2021/01/04 03:40:52;;;;;;;19.75;13.48;;;;;;;4.28;74.49;99988.05;1738694;82;21145;-41
2021/01/04 03:43:20;;;;;;;21.87;13.32;;;;;;;4.22;74.64;99977.96;1738573;82;21202;-41
2021/01/04 03:45:49;;;;;;;20.12;12.88;;;;;;;4.15;74.79;99982.96;1738561;82;21156;-41
2021/01/04 03:48:17;;;;;;;20.48;13.15;;;;;;;4.10;74.95;99977.70;1733787;82;21445;-41
2021/01/04 03:50:46;;;;;;;20.02;13.28;;;;;;;3.79;74.98;99925.23;1738631;82;21073;-41
2021/01/04 03:53:14;;;;;;;19.37;13.13;;;;;;;4.14;75.08;99979.23;1738755;82;21608;-41
2021/01/04 03:55:43;;;;;;;20.50;13.55;;;;;;;4.12;75.12;99974.70;1738607;82;21368;-42
2021/01/04 03:58:12;;;;;;;18.30;12.23;;;;;;;4.08;75.22;99977.74;1738704;82;21173;-41
2021/01/04 04:00:40;;;;;;;17.27;11.57;;;;;;;4.06;75.30;99986.66;1738631;82;20998;-41
2021/01/04 04:03:09;;;;;;;19.80;13.08;;;;;;;4.09;75.22;99980.68;1738549;82;21152;-40
2021/01/04 04:05:37;;;;;;;18.65;12.73;;;;;;;4.06;75.31;99988.80;1743940;82;21139;-42
2021/01/04 04:08:06;;;;;;;18.07;11.38;;;;;;;4.02;75.45;99985.67;1744121;82;21372;-42
2021/01/04 04:10:34;;;;;;;20.02;11.65;;;;;;;3.97;75.59;99984.44;1744099;82;21178;-41
2021/01/04 04:13:03;;;;;;;16.57;10.68;;;;;;;4.01;75.58;99985.42;1744221;82;21614;-40
2021/01/04 04:15:31;;;;;;;15.35;10.53;;;;;;;4.05;75.49;99985.06;1744155;82;21174;-40
2021/01/04 04:18:00;;;;;;;16.97;11.40;;;;;;;4.05;75.49;99991.23;1744159;82;21146;-41
2021/01/04 04:20:28;;;;;;;16.97;10.65;;;;;;;4.03;75.58;99988.04;1744179;82;21197;-42
2021/01/04 04:22:56;;;;;;;18.60;11.00;;;;;;;4.02;75.68;99981.08;1744053;82;21166;-41
2021/01/04 04:25:25;;;;;;;14.90;9.73;;;;;;;4.01;75.65;99986.77;1744189;82;21198;-42
2021/01/04 04:27:55;;;;;;;15.48;10.60;;;;;;;4.02;75.57;99973.60;1744179;82;21152;-42
2021/01/04 04:30:25;;;;;;;16.62;11.73;;;;;;;4.04;75.48;99970.05;1739148;82;21198;-40
2021/01/04 04:32:57;;;;;;;21.30;11.00;;;;;;;3.99;75.78;99973.64;1744253;82;21201;-41
2021/01/04 04:35:27;;;;;;;16.02;10.70;;;;;;;3.97;75.92;99981.18;1744148;82;21170;-41
2021/01/04 04:37:56;;;;;;;16.30;10.32;;;;;;;3.92;75.93;99976.72;1744400;82;21577;-41
2021/01/04 04:40:29;;;;;;;15.98;10.23;;;;;;;3.89;76.10;99986.72;1744058;82;21138;-41
2021/01/04 04:43:11;;;;;;;15.60;10.25;;;;;;;3.95;75.96;99986.07;1744147;82;21399;-41
2021/01/04 04:45:40;;;;;;;16.40;10.45;;;;;;;4.00;76.02;99996.70;1744131;82;21487;-41
2021/01/04 04:48:36;;;;;;;15.53;10.58;;;;;;;3.93;76.12;99983.68;1744046;82;21906;-41
2021/01/04 04:51:23;;;;;;;16.90;10.13;;;;;;;3.87;76.29;99987.55;1744219;82;21174;-43
2021/01/04 04:54:27;;;;;;;15.43;10.08;;;;;;;3.89;76.29;99989.40;1744212;82;21175;-40
2021/01/04 04:57:29;;;;;;;15.38;9.83;;;;;;;3.94;76.24;99978.56;1744240;82;21594;-40
2021/01/04 05:00:17;;;;;;;17.07;10.45;;;;;;;3.99;76.31;99983.58;1744142;81;21373;-41
2021/01/04 05:03:03;;;;;;;14.95;10.30;;;;;;;4.01;76.27;99989.45;1728556;82;21166;-43
2021/01/04 05:05:58;;;;;;;13.90;9.23;;;;;;;4.01;76.16;99988.11;1722545;81;21094;-43
2021/01/04 05:09:00;;;;;;;16.23;9.43;;;;;;;4.06;76.07;99987.45;1739801;81;21080;-41
2021/01/04 05:11:34;;;;;;;15.78;9.75;;;;;;;4.08;75.92;99984.45;1769123;81;21139;-42
2021/01/04 05:14:06;;;;;;;13.10;9.23;;;;;;;4.04;75.93;99991.52;1763310;81;21599;-42
2021/01/04 05:16:59;;;;;;;13.95;9.03;;;;;;;4.00;76.00;99991.88;1762918;81;21037;-43
2021/01/04 05:20:22;;;;;;;13.93;9.28;;;;;;;3.99;76.12;99983.58;1734366;82;21199;-40
2021/01/04 05:23:17;;;;;;;13.93;9.58;;;;;;;4.04;76.11;99981.58;1800065;79;21045;-41
2021/01/04 05:26:29;;;;;;;15.35;10.13;;;;;;;4.19;75.91;99989.31;1808800;78;22607;-40
2021/01/04 05:29:54;;;;;;;14.23;9.50;;;;;;;4.18;75.85;99994.97;1784142;80;20971;-41
2021/01/04 05:33:01;;;;;;;16.82;9.35;;;;;;;4.16;75.69;99999.86;1805082;79;21673;-40
2021/01/04 05:35:29;;;;;;;12.45;8.83;;;;;;;4.09;75.73;99996.23;1816215;78;20979;-40
2021/01/04 05:38:30;;;;;;;15.03;9.30;;;;;;;4.17;75.73;99996.86;1816242;79;21114;-41
2021/01/04 05:41:29;;;;;;;16.60;10.50;;;;;;;4.23;75.57;99997.55;1816212;79;20999;-41
2021/01/04 05:44:26;;;;;;;15.13;10.08;;;;;;;4.21;75.51;100002.44;1815448;79;21621;-41
2021/01/04 05:47:24;;;;;;;13.32;8.78;;;;;;;4.16;75.63;99993.16;1816301;79;21561;-41
2021/01/04 05:50:06;;;;;;;13.22;9.15;;;;;;;4.11;75.79;99983.87;1816207;79;21266;-42
2021/01/04 05:52:36;;;;;;;15.85;9.73;;;;;;;4.18;75.69;99982.34;1816251;79;21019;-41
2021/01/04 05:55:06;;;;;;;13.60;9.03;;;;;;;4.25;75.48;99986.77;1810958;78;21322;-40
2021/01/04 05:57:44;;;;;;;17.57;10.10;;;;;;;4.25;75.50;99988.66;1816344;78;21160;-40
2021/01/04 06:00:16;;;;;;;15.45;8.78;;;;;;;4.22;75.45;99986.02;1816395;79;22134;-41
2021/01/04 06:02:44;;;;;;;16.57;9.50;;;;;;;4.21;75.60;99993.05;1814401;79;21628;-41
2021/01/04 06:05:16;;;;;;;14.55;9.05;;;;;;;4.23;75.57;99990.30;1816180;78;21121;-41
2021/01/04 06:07:46;;;;;;;15.05;9.10;;;;;;;4.28;75.45;99996.09;1816229;78;21434;-40
2021/01/04 06:10:30;;;;;;;16.57;9.35;;;;;;;4.31;75.47;100002.19;1816362;79;21193;-41
2021/01/04 06:13:02;;;;;;;17.17;9.95;;;;;;;4.31;75.39;100005.67;1813822;79;21286;-42
2021/01/04 06:15:35;;;;;;;13.13;9.23;;;;;;;4.26;75.46;100009.04;1816217;79;21281;-42
2021/01/04 06:18:12;;;;;;;15.63;9.20;;;;;;;4.18;75.70;100001.13;1816300;79;21332;-42
2021/01/04 06:20:46;;;;;;;13.18;8.43;;;;;;;4.13;75.85;100000.44;1816229;78;21039;-41
2021/01/04 06:23:23;;;;;;;13.85;8.98;;;;;;;4.16;75.87;100000.66;1816271;79;21134;-41
2021/01/04 06:25:57;;;;;;;13.95;9.20;;;;;;;4.13;75.88;99992.39;1806509;79;21270;-40
2021/01/04 06:28:26;;;;;;;15.43;10.50;;;;;;;4.19;75.96;100004.07;1804425;79;21071;-39
2021/01/04 06:31:05;;;;;;;15.25;9.68;;;;;;;4.23;76.09;100000.23;1806891;79;21019;-41
2021/01/04 06:33:33;;;;;;;13.72;8.43;;;;;;;4.32;75.85;100001.89;1813745;79;21102;-41
2021/01/04 06:36:06;;;;;;;13.05;8.78;;;;;;;4.38;75.60;100007.95;1813298;79;21091;-41
2021/01/04 06:38:36;;;;;;;15.38;9.58;;;;;;;4.35;75.57;100006.68;1813180;79;21431;-42
2021/01/04 06:41:18;;;;;;;12.23;9.08;;;;;;;4.33;75.75;100008.06;1813008;79;21147;-40
2021/01/04 06:43:46;;;;;;;14.65;8.78;;;;;;;4.33;75.82;100018.80;1810997;79;20984;-40
2021/01/04 06:46:51;;;;;;;12.15;8.40;;;;;;;4.32;75.78;100015.86;1813070;79;21059;-41
2021/01/04 06:49:28;;;;;;;12.78;8.88;;;;;;;4.37;75.76;100018.44;1813149;79;21131;-41
2021/01/04 06:52:43;;;;;;;10.95;8.30;;;;;;;4.40;75.60;100003.09;1813002;79;21411;-42
2021/01/04 06:55:31;;;;;;;15.63;9.45;;;;;;;4.40;75.67;100012.48;1754776;81;21201;-41
2021/01/04 06:58:22;;;;;;;16.97;8.45;;;;;;;4.28;75.92;99996.09;1744481;82;21104;-41
2021/01/04 07:01:08;;;;;;;10.48;7.83;;;;;;;4.30;76.00;100004.66;1813097;79;21549;-42
2021/01/04 07:04:23;;;;;;;10.98;7.80;;;;;;;4.40;75.88;100011.14;1813156;79;21600;-42
2021/01/04 07:07:20;;;;;;;12.37;7.90;;;;;;;4.40;75.70;100004.43;1812984;79;21287;-41
2021/01/04 07:10:13;;;;;;;12.78;8.23;;;;;;;4.35;75.79;100002.66;1812833;79;21177;-44
2021/01/04 07:13:11;;;;;;;12.23;7.80;;;;;;;4.28;75.90;100000.91;1813118;79;21112;-42
2021/01/04 07:16:04;;;;;;;12.98;7.90;;;;;;;4.30;75.99;100008.67;1813204;79;21568;-42
2021/01/04 07:18:53;;;;;;;12.30;8.43;;;;;;;4.33;75.93;100014.23;1807545;79;21593;-39
2021/01/04 07:21:35;;;;;;;13.18;7.80;;;;;;;4.31;76.03;100018.30;1813115;79;21193;-41
2021/01/04 07:24:24;;;;;;;13.53;7.83;;;;;;;4.30;76.01;100028.80;1812411;79;21217;-42
2021/01/04 07:27:30;;;;;;;10.38;7.30;;;;;;;4.29;76.10;100023.19;1812937;79;21174;-41
2021/01/04 07:30:30;;;;;;;10.30;6.90;;;;;;;4.38;75.97;100022.17;1809523;78;22984;-42
2021/01/04 07:33:21;;;;;;;12.63;8.23;;;;;;;4.36;75.98;100022.20;1784195;80;20975;-41
2021/01/04 07:36:10;;;;;;;9.80;7.60;;;;;;;4.33;76.07;100030.33;1719486;83;21402;-42
2021/01/04 07:38:43;;;;;;;11.40;7.83;;;;;;;4.32;76.10;100022.57;1719415;83;21047;-41
2021/01/04 07:41:40;;;;;;;10.00;7.05;;;;;;;4.31;76.15;100021.77;1749365;82;21130;-41
2021/01/04 07:44:35;;;;;;;9.43;6.33;;;;;;;4.35;76.18;100030.05;1719452;83;21077;-40
2021/01/04 07:47:30;;;;;;;9.48;6.87;;;;;;;4.40;75.93;100029.94;1749308;82;21059;-41
2021/01/04 07:50:43;;;;;;;9.43;6.60;;;;;;;4.42;76.01;100034.98;1719440;83;21266;-42
2021/01/04 07:53:32;;;;;;;9.50;6.85;;;;;;;4.44;75.96;100042.20;1749281;82;21044;-40
2021/01/04 07:56:35;;;;;;;10.82;6.83;;;;;;;4.41;75.97;100046.80;1719387;83;21018;-41
2021/01/04 07:59:45;;;;;;;7.85;6.20;;;;;;;4.47;76.02;100046.41;1720391;82;21182;-41
2021/01/04 08:02:34;;;;;;;;;;;;;;;4.61;75.89;100041.79;1721985;83;21164;-41
2021/01/04 08:05:40;;;;;;;10.82;7.37;;;;;;;4.66;75.58;100047.05;1719505;83;21386;-39
2021/01/04 08:08:54;;;;;;;10.78;7.28;;;;;;;4.56;75.84;100056.67;1719309;83;21163;-40
2021/01/04 08:12:02;;;;;;;10.43;6.92;;;;;;;4.56;75.56;100059.36;1688933;83;21706;-41
2021/01/04 08:14:51;;;;;;;7.65;5.85;;;;;;;4.62;75.56;100068.10;1719360;83;21179;-42
2021/01/04 08:17:39;;;;;;;10.82;7.10;;;;;;;4.70;75.19;100065.48;1719474;83;21163;-42
2021/01/04 08:20:09;;;;;;;8.53;6.75;;;;;;;4.68;75.19;100069.58;1719615;83;21649;-40
2021/01/04 08:23:17;;;;;;;9.73;6.97;;;;;;;4.68;75.25;100055.61;1719376;83;21120;-41
2021/01/04 08:26:12;;;;;;;9.20;6.78;;;;;;;4.73;75.24;100060.07;1713776;83;21172;-41
2021/01/04 08:29:27;;;;;;;8.78;6.72;;;;;;;4.81;74.83;100055.31;1716686;83;21583;-40
2021/01/04 08:32:22;;;;;;;9.33;7.25;;;;;;;4.89;74.79;100055.15;1732013;82;21120;-41
2021/01/04 08:34:53;;;;;;;11.18;7.60;;;;;;;4.92;74.71;100069.30;1728153;83;21080;-41
2021/01/04 08:37:38;;;;;;;10.53;7.92;;;;;;;4.91;74.69;100059.65;1728233;83;21141;-41
2021/01/04 08:40:23;;;;;;;12.07;8.53;;;;;;;4.93;74.81;100054.23;1728048;83;21191;-41
2021/01/04 08:43:08;;;;;;;13.18;9.13;;;;;;;4.98;74.55;100049.28;1718240;83;21155;-41
2021/01/04 08:45:45;;;;;;;11.80;8.58;;;;;;;5.02;74.54;100048.38;1725264;83;21612;-41
2021/01/04 08:48:19;;;;;;;14.53;10.35;;;;;;;4.99;74.39;100047.62;1727721;83;21153;-41
2021/01/04 08:51:05;;;;;;;12.55;8.65;;;;;;;4.94;74.61;100046.39;1725106;83;21593;-42
2021/01/04 08:53:33;;;;;;;14.70;9.58;;;;;;;4.97;74.85;100045.00;1725137;83;21127;-42
2021/01/04 08:56:25;;;;;;;11.25;7.45;;;;;;;4.99;74.88;100041.45;1725118;83;21198;-40
2021/01/04 08:59:10;;;;;;;12.90;8.53;;;;;;;5.04;74.93;100039.98;1727625;83;21128;-42
2021/01/04 09:01:58;;;;;;;11.57;8.08;;;;;;;5.08;74.82;100037.72;1727815;83;22131;-41
2021/01/04 09:04:33;;;;;;;13.15;8.78;;;;;;;5.10;74.81;100045.48;1727699;82;28833;-41
2021/01/04 09:07:19;;;;;;;14.15;9.18;;;;;;;5.13;74.91;100040.28;1727708;83;21657;-41
2021/01/04 09:10:21;;;;;;;14.05;9.33;;;;;;;5.17;74.98;100042.62;1725134;83;21183;-41
2021/01/04 09:12:53;;;;;;;12.40;8.85;;;;;;;5.27;74.72;100041.58;1723509;83;21178;-41
2021/01/04 09:15:26;;;;;;;14.60;9.55;;;;;;;5.30;74.46;100039.61;1719745;83;24519;-41
2021/01/04 09:18:13;;;;;;;13.18;9.00;;;;;;;5.29;74.46;100048.77;1724955;83;21027;-42
2021/01/04 09:21:11;;;;;;;15.32;10.00;;;;;;;5.29;74.58;100046.63;1723085;83;21206;-41
2021/01/04 09:23:40;;;;;;;13.43;9.08;;;;;;;5.28;74.70;100043.72;1723377;83;21194;-41
2021/01/04 09:26:18;;;;;;;12.85;9.20;;;;;;;5.29;74.68;100036.67;1727795;83;21117;-41
2021/01/04 09:28:52;;;;;;;13.53;10.25;;;;;;;5.36;74.74;100046.45;1707463;82;22237;-41
2021/01/04 09:31:22;;;;;;;15.63;10.78;;;;;;;5.43;74.71;100036.03;1720940;82;21171;-41
2021/01/04 09:33:53;;;;;;;16.27;11.57;;;;;;;5.47;74.44;100028.94;1748917;82;21183;-41
2021/01/04 09:36:24;;;;;;;16.85;11.57;;;;;;;5.50;74.33;100031.57;1748681;82;21111;-41
2021/01/04 09:39:06;;;;;;;15.25;10.23;;;;;;;5.45;74.15;100027.67;1797326;79;21167;-40
2021/01/04 09:41:42;;;;;;;16.90;11.35;;;;;;;5.48;74.10;100022.45;1809002;78;22467;-42
2021/01/04 09:44:14;;;;;;;17.60;11.12;;;;;;;5.46;74.20;100021.99;1784226;80;20983;-41
2021/01/04 09:46:50;;;;;;;18.02;11.78;;;;;;;5.46;74.21;100022.54;1749363;82;21354;-41
2021/01/04 09:49:29;;;;;;;18.15;11.65;;;;;;;5.43;74.27;100024.48;1718226;82;21040;-42
2021/01/04 09:52:44;;;;;;;16.77;11.28;;;;;;;5.40;74.46;100024.56;1749411;82;21007;-41
2021/01/04 09:55:13;;;;;;;15.85;11.28;;;;;;;5.44;74.47;100022.05;1749295;82;21073;-39
2021/01/04 09:57:46;;;;;;;17.77;11.97;;;;;;;5.52;74.45;100024.77;1749433;82;20980;-42
2021/01/04 10:00:21;;;;;;;16.75;12.07;;;;;;;5.54;74.42;100023.13;1749312;82;21946;-42
2021/01/04 10:02:58;;;;;;;19.42;12.90;;;;;;;5.56;74.38;100024.41;1749365;82;21027;-42
2021/01/04 10:05:35;;;;;;;22.90;12.90;;;;;;;5.57;74.41;100014.42;1749356;82;21047;-43
2021/01/04 10:08:07;;;;;;;19.32;13.03;;;;;;;5.57;74.17;100012.53;1749164;82;21166;-41
2021/01/04 10:11:30;;;;;;;19.52;12.60;;;;;;;5.62;74.27;100004.33;1774094;79;22759;-42
2021/01/04 10:14:09;;;;;;;19.92;13.32;;;;;;;5.64;74.19;100013.44;1685311;85;21617;-40
2021/01/04 10:16:39;;;;;;;18.65;12.73;;;;;;;5.65;74.16;100010.45;1714073;83;21372;-42
2021/01/04 10:19:25;;;;;;;22.67;13.48;;;;;;;5.68;74.19;100009.02;1658312;85;21020;-42
2021/01/04 10:22:04;;;;;;;23.02;13.78;;;;;;;5.68;74.18;100002.30;1659756;85;21052;-41
2021/01/04 10:24:49;;;;;;;17.35;13.10;;;;;;;5.71;74.07;100003.59;1685315;85;21652;-42
2021/01/04 10:27:19;;;;;;;20.23;14.15;;;;;;;5.78;74.07;100011.98;1685253;85;21598;-42
2021/01/04 10:29:55;;;;;;;21.27;14.03;;;;;;;5.81;73.92;100018.11;1682954;85;21477;-41
2021/01/04 10:32:34;;;;;;;22.32;14.33;;;;;;;5.79;73.75;100015.72;1686475;84;21028;-42
2021/01/04 10:35:06;;;;;;;20.17;13.88;;;;;;;5.77;73.91;100012.53;1679429;85;21076;-42
2021/01/04 10:37:53;;;;;;;20.15;13.58;;;;;;;5.77;73.82;100013.08;1679570;85;21189;-41
2021/01/04 10:40:26;;;;;;;18.60;13.32;;;;;;;5.78;73.80;100014.13;1679515;85;21214;-41
2021/01/04 10:43:02;;;;;;;19.02;13.10;;;;;;;5.82;73.74;100012.94;1679456;85;21676;-40
2021/01/04 10:45:37;;;;;;;20.85;14.55;;;;;;;5.81;73.68;100014.84;1679434;85;21107;-42
2021/01/04 10:48:16;;;;;;;24.00;13.65;;;;;;;5.83;73.85;100006.46;1679456;85;21134;-42
2021/01/04 10:50:47;;;;;;;25.30;15.40;;;;;;;5.84;73.75;100016.13;1679290;85;21196;-40
2021/01/04 10:53:37;;;;;;;21.33;14.10;;;;;;;5.81;73.82;100018.11;1679555;85;21206;-41
2021/01/04 10:56:25;;;;;;;24.43;13.35;;;;;;;5.85;73.69;100014.48;1679644;85;21380;-40
2021/01/04 10:59:14;;;;;;;18.42;12.53;;;;;;;5.94;73.73;100018.02;1679334;85;21055;-41
2021/01/04 11:01:45;;;;;;;22.30;14.03;;;;;;;5.99;73.71;100015.19;1663064;85;21372;-41
2021/01/04 11:04:15;;;;;;;21.12;13.93;;;;;;;6.01;73.58;100008.12;1679465;85;21067;-41
2021/01/04 11:07:12;;;;;;;25.97;14.65;;;;;;;6.01;73.64;100002.73;1679579;85;21593;-41
2021/01/04 11:09:41;;;;;;;18.62;13.83;;;;;;;6.03;73.69;100004.58;1672537;84;21225;-40
2021/01/04 11:12:26;;;;;;;19.23;13.10;;;;;;;6.12;73.59;100005.38;1667246;86;21019;-42
2021/01/04 11:15:02;;;;;;;24.72;15.43;;;;;;;6.24;73.41;99997.50;1667218;86;20976;-41
2021/01/04 11:17:36;;;;;;;19.42;13.72;;;;;;;6.30;73.06;99998.91;1667305;86;21146;-41
2021/01/04 11:23:13;;;;;;;21.07;15.45;;;;;;;6.20;73.05;99987.09;1836035;77;22796;-41
2021/01/04 11:25:44;;;;;;;23.00;14.25;;;;;;;6.12;73.19;99983.84;1807789;79;21011;-41
2021/01/04 11:28:13;;;;;;;21.27;13.60;;;;;;;6.14;73.25;99980.84;1808340;79;21309;-41
2021/01/04 11:30:44;;;;;;;20.20;13.55;;;;;;;6.15;73.17;99977.06;1801790;79;21040;-41
2021/01/04 11:33:15;;;;;;;21.12;14.93;;;;;;;6.10;73.39;99984.70;1776653;80;21004;-40
2021/01/04 11:35:43;;;;;;;23.15;14.50;;;;;;;6.10;73.58;99976.63;1776492;80;20988;-42
2021/01/04 11:38:14;;;;;;;26.27;16.30;;;;;;;6.10;73.53;99969.89;1776530;80;21027;-42
2021/01/04 11:40:44;;;;;;;23.80;15.25;;;;;;;6.07;73.56;99972.67;1776376;80;21442;-41
2021/01/04 11:43:13;;;;;;;20.50;14.10;;;;;;;6.06;73.66;99972.43;1746418;80;21585;-41
2021/01/04 11:45:43;;;;;;;23.92;15.35;;;;;;;6.11;73.64;99972.28;1776699;80;21491;-42
2021/01/04 11:48:12;;;;;;;;;;;;;;;6.13;73.75;99976.02;1773835;80;20988;-42
2021/01/04 11:50:40;;;;;;;22.40;15.00;;;;;;;6.15;73.73;99979.17;1776427;80;20496;-42
2021/01/04 11:53:11;;;;;;;24.30;15.20;;;;;;;6.01;74.00;99986.04;1776531;80;22155;-42
2021/01/04 11:55:40;;;;;;;24.85;15.08;;;;;;;5.97;74.01;99983.73;1776329;80;20952;-40
2021/01/04 11:58:11;;;;;;;25.62;14.68;;;;;;;5.90;74.26;99992.84;1776373;80;21011;-40
2021/01/04 12:00:43;;;;;;;25.48;15.30;;;;;;;5.91;74.28;99989.57;1776259;80;21102;-41
2021/01/04 12:03:11;;;;;;;23.95;15.23;;;;;;;5.86;74.46;99991.83;1776337;80;21609;-42
2021/01/04 12:05:42;;;;;;;25.50;15.83;;;;;;;5.82;74.73;99995.45;1776467;80;21360;-41
2021/01/04 12:08:13;;;;;;;22.60;14.58;;;;;;;5.81;74.83;99998.69;1776425;80;21138;-41
2021/01/04 12:10:42;;;;;;;;;;;;;;;5.89;74.74;100003.91;1779027;80;21019;-42
2021/01/04 12:13:12;;;;;;;23.30;14.13;;;;;;;5.93;74.60;100006.20;1775735;80;20282;-41
2021/01/04 12:15:40;;;;;;;24.52;15.60;;;;;;;5.85;74.90;100004.27;1771193;80;21047;-42
2021/01/04 12:18:09;;;;;;;25.40;15.65;;;;;;;5.91;75.01;100015.13;1776330;80;21590;-40
2021/01/04 12:20:42;;;;;;;21.80;14.07;;;;;;;5.94;74.83;100015.88;1776322;80;21174;-42
2021/01/04 12:23:12;;;;;;;23.40;14.98;;;;;;;5.89;74.68;100016.02;1776304;80;21146;-40
2021/01/04 12:25:41;;;;;;;23.02;15.18;;;;;;;5.93;74.77;100010.24;1776320;80;21023;-40
2021/01/04 12:28:09;;;;;;;24.80;15.30;;;;;;;6.02;74.72;100009.71;1776367;80;21150;-41
2021/01/04 12:30:40;;;;;;;25.10;14.85;;;;;;;6.05;74.45;100005.83;1776288;79;21369;-42
2021/01/04 12:33:10;;;;;;;25.92;16.52;;;;;;;6.02;74.59;100011.06;1739180;82;21633;-40
2021/01/04 12:35:38;;;;;;;26.82;17.20;;;;;;;6.01;74.63;100011.61;1713355;83;21864;-42